sensor_id;sensor_type;location;lat;lon;timestamp;pressure;altitude;pressure_sealevel;temperature;humidity
16793;BME280;8513;42.662;23.350;2024-01-15T00:00:21;94341.63;;;-0.76;57.58
16793;BME280;8513;42.662;23.350;2024-01-15T00:02:47;94338.97;;;-0.75;57.57
16793;BME280;8513;42.662;23.350;2024-01-15T00:05:12;94330.19;;;-0.72;57.49
16793;BME280;8513;42.662;23.350;2024-01-15T00:07:38;94322.63;;;-0.88;57.88
16793;BME280;8513;42.662;23.350;2024-01-15T00:10:03;94323.13;;;-0.83;58.21
16793;BME280;8513;42.662;23.350;2024-01-15T00:12:32;94317.66;;;-0.78;57.96
16793;BME280;8513;42.662;23.350;2024-01-15T00:14:57;94325.53;;;-0.67;57.58
16793;BME280;8513;42.662;23.350;2024-01-15T00:17:23;94314.28;;;-0.66;57.56
16793;BME280;8513;42.662;23.350;2024-01-15T00:19:48;94319.91;;;-0.86;58.00
16793;BME280;8513;42.662;23.350;2024-01-15T00:22:13;94325.59;;;-0.81;57.94
16793;BME280;8513;42.662;23.350;2024-01-15T00:24:39;94323.34;;;-0.73;58.11
16793;BME280;8513;42.662;23.350;2024-01-15T00:27:04;94327.06;;;-0.77;57.79
16793;BME280;8513;42.662;23.350;2024-01-15T00:29:30;94327.50;;;-0.71;57.84
16793;BME280;8513;42.662;23.350;2024-01-15T00:31:55;94321.59;;;-0.85;57.97
16793;BME280;8513;42.662;23.350;2024-01-15T00:34:21;94318.47;;;-0.91;57.96
16793;BME280;8513;42.662;23.350;2024-01-15T00:36:46;94321.72;;;-0.74;57.82
16793;BME280;8513;42.662;23.350;2024-01-15T00:39:11;94324.34;;;-0.89;58.19
16793;BME280;8513;42.662;23.350;2024-01-15T00:41:37;94325.38;;;-0.91;58.21
16793;BME280;8513;42.662;23.350;2024-01-15T00:44:03;94327.66;;;-0.86;58.15
16793;BME280;8513;42.662;23.350;2024-01-15T00:46:28;94323.47;;;-0.75;57.69
16793;BME280;8513;42.662;23.350;2024-01-15T00:48:54;94319.00;;;-0.85;57.87
16793;BME280;8513;42.662;23.350;2024-01-15T00:51:19;94322.28;;;-0.83;58.01
16793;BME280;8513;42.662;23.350;2024-01-15T00:53:45;94318.66;;;-1.06;58.49
16793;BME280;8513;42.662;23.350;2024-01-15T00:56:10;94318.66;;;-0.94;58.15
16793;BME280;8513;42.662;23.350;2024-01-15T00:58:35;94316.59;;;-1.01;58.36
16793;BME280;8513;42.662;23.350;2024-01-15T01:01:01;94321.56;;;-0.98;57.81
16793;BME280;8513;42.662;23.350;2024-01-15T01:03:26;94320.78;;;-1.13;58.87
16793;BME280;8513;42.662;23.350;2024-01-15T01:05:52;94321.88;;;-0.90;58.14
16793;BME280;8513;42.662;23.350;2024-01-15T01:08:17;94327.00;;;-1.03;58.65
16793;BME280;8513;42.662;23.350;2024-01-15T01:10:43;94316.19;;;-0.95;58.34
16793;BME280;8513;42.662;23.350;2024-01-15T01:13:09;94309.88;;;-0.91;57.93
16793;BME280;8513;42.662;23.350;2024-01-15T01:15:34;94318.28;;;-0.87;58.28
16793;BME280;8513;42.662;23.350;2024-01-15T01:18:00;94310.63;;;-0.89;58.14
16793;BME280;8513;42.662;23.350;2024-01-15T01:20:25;94320.91;;;-1.02;58.25
16793;BME280;8513;42.662;23.350;2024-01-15T01:22:51;94307.66;;;-1.23;58.95
16793;BME280;8513;42.662;23.350;2024-01-15T01:25:16;94307.88;;;-1.13;58.83
16793;BME280;8513;42.662;23.350;2024-01-15T01:27:42;94305.97;;;-0.97;58.68
16793;BME280;8513;42.662;23.350;2024-01-15T01:30:08;94309.38;;;-0.96;58.15
16793;BME280;8513;42.662;23.350;2024-01-15T01:32:33;94300.97;;;-1.13;58.40
16793;BME280;8513;42.662;23.350;2024-01-15T01:34:59;94299.69;;;-0.93;57.70
16793;BME280;8513;42.662;23.350;2024-01-15T01:37:25;94298.34;;;-0.98;58.24
16793;BME280;8513;42.662;23.350;2024-01-15T01:39:50;94293.25;;;-1.00;58.09
16793;BME280;8513;42.662;23.350;2024-01-15T01:42:15;94282.72;;;-0.97;57.83
16793;BME280;8513;42.662;23.350;2024-01-15T01:44:41;94292.97;;;-0.95;58.40
16793;BME280;8513;42.662;23.350;2024-01-15T01:47:07;94297.38;;;-0.97;58.22
16793;BME280;8513;42.662;23.350;2024-01-15T01:49:33;94297.16;;;-1.07;58.55
16793;BME280;8513;42.662;23.350;2024-01-15T01:52:01;94303.53;;;-1.13;58.45
16793;BME280;8513;42.662;23.350;2024-01-15T01:54:29;94298.91;;;-1.20;58.31
16793;BME280;8513;42.662;23.350;2024-01-15T01:56:56;94293.41;;;-1.16;58.64
16793;BME280;8513;42.662;23.350;2024-01-15T01:59:23;94287.84;;;-1.22;58.76
16793;BME280;8513;42.662;23.350;2024-01-15T02:01:51;94287.44;;;-1.16;58.42
16793;BME280;8513;42.662;23.350;2024-01-15T02:04:17;94277.00;;;-1.27;58.81
16793;BME280;8513;42.662;23.350;2024-01-15T02:06:42;94274.84;;;-1.21;58.53
16793;BME280;8513;42.662;23.350;2024-01-15T02:09:08;94279.16;;;-1.21;58.72
16793;BME280;8513;42.662;23.350;2024-01-15T02:11:35;94275.47;;;-1.17;58.17
16793;BME280;8513;42.662;23.350;2024-01-15T02:14:04;94275.16;;;-1.13;58.35
16793;BME280;8513;42.662;23.350;2024-01-15T02:16:30;94268.72;;;-0.93;57.58
16793;BME280;8513;42.662;23.350;2024-01-15T02:18:56;94267.88;;;-0.93;57.15
16793;BME280;8513;42.662;23.350;2024-01-15T02:21:21;94256.41;;;-1.02;57.84
16793;BME280;8513;42.662;23.350;2024-01-15T02:23:47;94246.78;;;-1.13;57.64
16793;BME280;8513;42.662;23.350;2024-01-15T02:26:12;94234.41;;;-1.07;57.48
16793;BME280;8513;42.662;23.350;2024-01-15T02:28:38;94232.66;;;-1.07;57.57
16793;BME280;8513;42.662;23.350;2024-01-15T02:31:03;94211.41;;;-0.98;57.09
16793;BME280;8513;42.662;23.350;2024-01-15T02:33:29;94214.19;;;-1.14;57.49
16793;BME280;8513;42.662;23.350;2024-01-15T02:35:54;94211.59;;;-1.14;57.66
16793;BME280;8513;42.662;23.350;2024-01-15T02:38:20;94219.97;;;-1.10;57.92
16793;BME280;8513;42.662;23.350;2024-01-15T02:40:45;94209.94;;;-1.02;57.53
16793;BME280;8513;42.662;23.350;2024-01-15T02:43:11;94217.91;;;-1.05;58.15
16793;BME280;8513;42.662;23.350;2024-01-15T02:45:37;94213.25;;;-1.00;57.82
16793;BME280;8513;42.662;23.350;2024-01-15T02:48:02;94209.53;;;-0.83;57.44
16793;BME280;8513;42.662;23.350;2024-01-15T02:50:28;94207.91;;;-0.97;57.24
16793;BME280;8513;42.662;23.350;2024-01-15T02:52:53;94209.88;;;-0.87;57.26
16793;BME280;8513;42.662;23.350;2024-01-15T02:55:19;94211.22;;;-0.95;57.68
16793;BME280;8513;42.662;23.350;2024-01-15T02:57:44;94219.03;;;-1.09;57.71
16793;BME280;8513;42.662;23.350;2024-01-15T03:00:10;94204.56;;;-1.24;58.16
16793;BME280;8513;42.662;23.350;2024-01-15T03:02:37;94207.56;;;-1.30;58.25
16793;BME280;8513;42.662;23.350;2024-01-15T03:05:09;94207.94;;;-1.49;58.74
16793;BME280;8513;42.662;23.350;2024-01-15T03:07:35;94210.19;;;-1.45;58.63
16793;BME280;8513;42.662;23.350;2024-01-15T03:10:01;94200.53;;;-1.41;58.55
16793;BME280;8513;42.662;23.350;2024-01-15T03:12:27;94208.59;;;-1.33;58.52
16793;BME280;8513;42.662;23.350;2024-01-15T03:14:52;94201.38;;;-1.28;58.41
16793;BME280;8513;42.662;23.350;2024-01-15T03:17:18;94200.16;;;-1.22;58.55
16793;BME280;8513;42.662;23.350;2024-01-15T03:19:43;94198.88;;;-1.29;58.63
16793;BME280;8513;42.662;23.350;2024-01-15T03:22:09;94203.47;;;-1.20;58.33
16793;BME280;8513;42.662;23.350;2024-01-15T03:24:35;94203.94;;;-1.15;58.88
16793;BME280;8513;42.662;23.350;2024-01-15T03:27:01;94197.94;;;-1.28;58.58
16793;BME280;8513;42.662;23.350;2024-01-15T03:29:26;94190.66;;;-1.22;58.72
16793;BME280;8513;42.662;23.350;2024-01-15T03:31:52;94183.31;;;-1.15;59.06
16793;BME280;8513;42.662;23.350;2024-01-15T03:34:18;94188.78;;;-1.07;58.61
16793;BME280;8513;42.662;23.350;2024-01-15T03:36:43;94178.28;;;-1.04;58.70
16793;BME280;8513;42.662;23.350;2024-01-15T03:39:09;94188.81;;;-0.94;58.67
16793;BME280;8513;42.662;23.350;2024-01-15T03:41:34;94169.09;;;-0.95;58.25
16793;BME280;8513;42.662;23.350;2024-01-15T03:44:00;94177.25;;;-1.01;58.88
16793;BME280;8513;42.662;23.350;2024-01-15T03:46:25;94178.91;;;-0.87;58.17
16793;BME280;8513;42.662;23.350;2024-01-15T03:48:50;94181.06;;;-0.94;58.34
16793;BME280;8513;42.662;23.350;2024-01-15T03:51:19;94194.16;;;-0.97;58.25
16793;BME280;8513;42.662;23.350;2024-01-15T03:53:44;94187.34;;;-1.11;58.59
16793;BME280;8513;42.662;23.350;2024-01-15T03:56:10;94183.75;;;-0.96;58.14
16793;BME280;8513;42.662;23.350;2024-01-15T03:58:35;94189.44;;;-1.03;58.08
16793;BME280;8513;42.662;23.350;2024-01-15T04:01:01;94190.56;;;-1.20;58.70
16793;BME280;8513;42.662;23.350;2024-01-15T04:03:26;94179.13;;;-1.56;59.87
16793;BME280;8513;42.662;23.350;2024-01-15T04:05:52;94184.44;;;-1.32;59.58
16793;BME280;8513;42.662;23.350;2024-01-15T04:08:17;94172.28;;;-1.30;59.13
16793;BME280;8513;42.662;23.350;2024-01-15T04:10:43;94170.53;;;-1.17;59.14
16793;BME280;8513;42.662;23.350;2024-01-15T04:13:08;94168.38;;;-1.23;59.25
16793;BME280;8513;42.662;23.350;2024-01-15T04:15:34;94168.34;;;-1.10;58.87
16793;BME280;8513;42.662;23.350;2024-01-15T04:17:59;94165.88;;;-1.24;59.29
16793;BME280;8513;42.662;23.350;2024-01-15T04:20:26;94166.81;;;-1.13;58.71
16793;BME280;8513;42.662;23.350;2024-01-15T04:22:52;94171.31;;;-1.42;59.71
16793;BME280;8513;42.662;23.350;2024-01-15T04:25:17;94167.81;;;-1.41;59.94
16793;BME280;8513;42.662;23.350;2024-01-15T04:27:43;94167.66;;;-1.25;59.26
16793;BME280;8513;42.662;23.350;2024-01-15T04:30:08;94170.41;;;-1.15;59.06
16793;BME280;8513;42.662;23.350;2024-01-15T04:32:34;94163.41;;;-1.39;59.54
16793;BME280;8513;42.662;23.350;2024-01-15T04:34:59;94167.63;;;-1.38;59.74
16793;BME280;8513;42.662;23.350;2024-01-15T04:37:25;94169.69;;;-1.30;59.73
16793;BME280;8513;42.662;23.350;2024-01-15T04:39:50;94161.03;;;-1.16;59.22
16793;BME280;8513;42.662;23.350;2024-01-15T04:42:18;94171.56;;;-1.19;59.44
16793;BME280;8513;42.662;23.350;2024-01-15T04:44:43;94170.41;;;-1.15;59.28
16793;BME280;8513;42.662;23.350;2024-01-15T04:47:09;94167.84;;;-1.15;59.05
16793;BME280;8513;42.662;23.350;2024-01-15T04:49:34;94151.44;;;-1.27;59.53
16793;BME280;8513;42.662;23.350;2024-01-15T04:51:59;94157.00;;;-1.33;59.87
16793;BME280;8513;42.662;23.350;2024-01-15T04:54:25;94150.63;;;-1.27;59.59
16793;BME280;8513;42.662;23.350;2024-01-15T04:56:50;94158.69;;;-1.06;58.99
16793;BME280;8513;42.662;23.350;2024-01-15T04:59:15;94151.25;;;-1.11;59.10
16793;BME280;8513;42.662;23.350;2024-01-15T05:01:42;94144.22;;;-1.22;59.49
16793;BME280;8513;42.662;23.350;2024-01-15T05:04:07;94143.50;;;-1.11;59.07
16793;BME280;8513;42.662;23.350;2024-01-15T05:06:33;94151.44;;;-1.14;59.41
16793;BME280;8513;42.662;23.350;2024-01-15T05:08:58;94146.38;;;-1.16;59.32
16793;BME280;8513;42.662;23.350;2024-01-15T05:11:24;94140.50;;;-1.18;59.57
16793;BME280;8513;42.662;23.350;2024-01-15T05:13:50;94135.56;;;-1.08;59.36
16793;BME280;8513;42.662;23.350;2024-01-15T05:16:15;94130.28;;;-1.06;59.35
16793;BME280;8513;42.662;23.350;2024-01-15T05:18:40;94132.34;;;-1.12;59.42
16793;BME280;8513;42.662;23.350;2024-01-15T05:21:06;94125.31;;;-0.97;58.87
16793;BME280;8513;42.662;23.350;2024-01-15T05:23:31;94130.50;;;-1.09;59.08
16793;BME280;8513;42.662;23.350;2024-01-15T05:25:57;94149.47;;;-1.11;59.19
16793;BME280;8513;42.662;23.350;2024-01-15T05:28:22;94134.31;;;-1.41;59.73
16793;BME280;8513;42.662;23.350;2024-01-15T05:30:48;94134.53;;;-1.31;59.72
16793;BME280;8513;42.662;23.350;2024-01-15T05:33:15;94125.63;;;-1.40;59.94
16793;BME280;8513;42.662;23.350;2024-01-15T05:35:41;94111.63;;;-1.36;59.98
16793;BME280;8513;42.662;23.350;2024-01-15T05:38:06;94135.13;;;-1.27;59.78
16793;BME280;8513;42.662;23.350;2024-01-15T05:40:32;94123.66;;;-1.49;60.21
16793;BME280;8513;42.662;23.350;2024-01-15T05:42:57;94148.00;;;-1.53;60.18
16793;BME280;8513;42.662;23.350;2024-01-15T05:45:22;94117.97;;;-1.67;60.55
16793;BME280;8513;42.662;23.350;2024-01-15T05:47:48;94121.09;;;-1.49;60.18
16793;BME280;8513;42.662;23.350;2024-01-15T05:50:13;94128.72;;;-1.47;60.21
16793;BME280;8513;42.662;23.350;2024-01-15T05:52:39;94110.78;;;-1.36;60.26
16793;BME280;8513;42.662;23.350;2024-01-15T05:55:04;94108.91;;;-1.34;60.04
16793;BME280;8513;42.662;23.350;2024-01-15T05:57:30;94104.78;;;-1.62;61.06
16793;BME280;8513;42.662;23.350;2024-01-15T05:59:55;94103.78;;;-1.47;60.64
16793;BME280;8513;42.662;23.350;2024-01-15T06:02:21;94119.34;;;-1.48;60.74
16793;BME280;8513;42.662;23.350;2024-01-15T06:04:46;94121.50;;;-1.42;61.14
16793;BME280;8513;42.662;23.350;2024-01-15T06:07:12;94117.16;;;-1.42;60.96
16793;BME280;8513;42.662;23.350;2024-01-15T06:09:37;94130.28;;;-1.19;60.48
16793;BME280;8513;42.662;23.350;2024-01-15T06:12:04;94135.56;;;-1.08;60.08
16793;BME280;8513;42.662;23.350;2024-01-15T06:14:29;94122.03;;;-0.99;60.13
16793;BME280;8513;42.662;23.350;2024-01-15T06:16:55;94109.44;;;-1.16;60.28
16793;BME280;8513;42.662;23.350;2024-01-15T06:19:20;94109.75;;;-1.34;60.73
16793;BME280;8513;42.662;23.350;2024-01-15T06:21:46;94116.78;;;-1.23;60.85
16793;BME280;8513;42.662;23.350;2024-01-15T06:24:11;94112.31;;;-0.95;60.29
16793;BME280;8513;42.662;23.350;2024-01-15T06:26:38;94109.63;;;-0.94;60.04
16793;BME280;8513;42.662;23.350;2024-01-15T06:29:04;94105.19;;;-0.92;59.79
16793;BME280;8513;42.662;23.350;2024-01-15T06:31:29;94105.41;;;-0.95;59.72
16793;BME280;8513;42.662;23.350;2024-01-15T06:33:55;94111.59;;;-0.84;59.71
16793;BME280;8513;42.662;23.350;2024-01-15T06:36:21;94125.09;;;-0.68;59.30
16793;BME280;8513;42.662;23.350;2024-01-15T06:38:46;94104.78;;;-0.85;59.77
16793;BME280;8513;42.662;23.350;2024-01-15T06:41:12;94097.41;;;-0.66;59.35
16793;BME280;8513;42.662;23.350;2024-01-15T06:43:37;94112.91;;;-0.66;59.30
16793;BME280;8513;42.662;23.350;2024-01-15T06:46:03;94097.84;;;-0.72;59.33
16793;BME280;8513;42.662;23.350;2024-01-15T06:48:28;94104.28;;;-0.54;59.18
16793;BME280;8513;42.662;23.350;2024-01-15T06:50:54;94118.81;;;-0.77;59.97
16793;BME280;8513;42.662;23.350;2024-01-15T06:53:19;94108.78;;;-0.81;60.00
16793;BME280;8513;42.662;23.350;2024-01-15T06:55:45;94119.78;;;-0.54;59.64
16793;BME280;8513;42.662;23.350;2024-01-15T06:58:11;94136.31;;;-0.56;59.48
16793;BME280;8513;42.662;23.350;2024-01-15T07:00:37;94102.56;;;-0.53;59.48
16793;BME280;8513;42.662;23.350;2024-01-15T07:03:03;94128.25;;;-0.52;59.69
16793;BME280;8513;42.662;23.350;2024-01-15T07:05:28;94118.34;;;-0.45;59.48
16793;BME280;8513;42.662;23.350;2024-01-15T07:07:55;94126.50;;;-0.51;59.76
16793;BME280;8513;42.662;23.350;2024-01-15T07:10:20;94130.38;;;-0.33;59.13
16793;BME280;8513;42.662;23.350;2024-01-15T07:12:46;94114.66;;;-0.30;59.05
16793;BME280;8513;42.662;23.350;2024-01-15T07:15:11;94129.00;;;-0.26;58.96
16793;BME280;8513;42.662;23.350;2024-01-15T07:17:37;94126.47;;;-0.38;59.34
16793;BME280;8513;42.662;23.350;2024-01-15T07:20:06;94124.88;;;-0.28;59.34
16793;BME280;8513;42.662;23.350;2024-01-15T07:22:38;94130.78;;;-0.26;59.63
16793;BME280;8513;42.662;23.350;2024-01-15T07:25:04;94129.66;;;-0.11;59.37
16793;BME280;8513;42.662;23.350;2024-01-15T07:27:31;94093.50;;;-0.11;59.00
16793;BME280;8513;42.662;23.350;2024-01-15T07:29:57;94111.97;;;-0.04;59.35
16793;BME280;8513;42.662;23.350;2024-01-15T07:32:22;94113.84;;;-0.06;59.46
16793;BME280;8513;42.662;23.350;2024-01-15T07:34:48;94102.47;;;-0.04;59.30
16793;BME280;8513;42.662;23.350;2024-01-15T07:37:14;94095.59;;;0.08;59.12
16793;BME280;8513;42.662;23.350;2024-01-15T07:39:39;94111.97;;;0.20;58.97
16793;BME280;8513;42.662;23.350;2024-01-15T07:42:13;94117.31;;;0.30;58.71
16793;BME280;8513;42.662;23.350;2024-01-15T07:44:38;94113.94;;;0.40;57.82
16793;BME280;8513;42.662;23.350;2024-01-15T07:47:04;94112.25;;;0.39;58.37
16793;BME280;8513;42.662;23.350;2024-01-15T07:49:30;94128.13;;;0.35;58.44
16793;BME280;8513;42.662;23.350;2024-01-15T07:51:55;94120.84;;;0.40;57.84
16793;BME280;8513;42.662;23.350;2024-01-15T07:54:20;94117.91;;;0.44;57.66
16793;BME280;8513;42.662;23.350;2024-01-15T07:56:59;94115.81;;;0.50;57.83
16793;BME280;8513;42.662;23.350;2024-01-15T07:59:25;94114.22;;;0.60;57.01
16793;BME280;8513;42.662;23.350;2024-01-15T08:01:52;94094.34;;;0.72;56.67
16793;BME280;8513;42.662;23.350;2024-01-15T08:04:18;94100.25;;;0.74;56.52
16793;BME280;8513;42.662;23.350;2024-01-15T08:06:44;94093.19;;;0.76;56.23
16793;BME280;8513;42.662;23.350;2024-01-15T08:09:10;94088.38;;;0.82;56.37
16793;BME280;8513;42.662;23.350;2024-01-15T08:11:36;94090.94;;;0.82;56.60
16793;BME280;8513;42.662;23.350;2024-01-15T08:14:01;94098.47;;;0.74;56.56
16793;BME280;8513;42.662;23.350;2024-01-15T08:16:27;94094.25;;;0.84;56.27
16793;BME280;8513;42.662;23.350;2024-01-15T08:18:55;94098.63;;;0.84;56.62
16793;BME280;8513;42.662;23.350;2024-01-15T08:21:21;94113.56;;;0.92;56.36
16793;BME280;8513;42.662;23.350;2024-01-15T08:23:47;94116.25;;;0.90;56.06
16793;BME280;8513;42.662;23.350;2024-01-15T08:26:13;94108.88;;;0.97;55.86
16793;BME280;8513;42.662;23.350;2024-01-15T08:28:38;94117.13;;;1.02;55.64
16793;BME280;8513;42.662;23.350;2024-01-15T08:31:03;94113.56;;;1.03;55.62
16793;BME280;8513;42.662;23.350;2024-01-15T08:33:29;94096.16;;;1.05;55.49
16793;BME280;8513;42.662;23.350;2024-01-15T08:35:54;94089.22;;;1.05;55.73
16793;BME280;8513;42.662;23.350;2024-01-15T08:38:20;94082.28;;;1.06;55.84
16793;BME280;8513;42.662;23.350;2024-01-15T08:40:45;94070.97;;;1.18;55.79
16793;BME280;8513;42.662;23.350;2024-01-15T08:43:11;94087.09;;;1.22;55.50
16793;BME280;8513;42.662;23.350;2024-01-15T08:45:37;94082.72;;;1.33;55.69
16793;BME280;8513;42.662;23.350;2024-01-15T08:48:02;94073.31;;;1.44;54.91
16793;BME280;8513;42.662;23.350;2024-01-15T08:50:29;94067.78;;;1.48;54.29
16793;BME280;8513;42.662;23.350;2024-01-15T08:52:54;94058.84;;;1.30;55.31
16793;BME280;8513;42.662;23.350;2024-01-15T08:55:20;94064.59;;;1.33;55.64
16793;BME280;8513;42.662;23.350;2024-01-15T08:57:48;94082.47;;;1.59;55.36
16793;BME280;8513;42.662;23.350;2024-01-15T09:00:13;94073.13;;;1.68;54.81
16793;BME280;8513;42.662;23.350;2024-01-15T09:02:39;94064.31;;;1.70;54.60
16793;BME280;8513;42.662;23.350;2024-01-15T09:05:05;94060.19;;;1.68;54.01
16793;BME280;8513;42.662;23.350;2024-01-15T09:07:30;94037.22;;;1.74;53.98
16793;BME280;8513;42.662;23.350;2024-01-15T09:09:56;94034.97;;;1.70;54.05
16793;BME280;8513;42.662;23.350;2024-01-15T09:12:21;94040.28;;;1.68;54.15
16793;BME280;8513;42.662;23.350;2024-01-15T09:14:47;94010.03;;;1.69;53.74
16793;BME280;8513;42.662;23.350;2024-01-15T09:17:13;94020.84;;;1.74;54.11
16793;BME280;8513;42.662;23.350;2024-01-15T09:19:38;94003.38;;;1.76;53.71
16793;BME280;8513;42.662;23.350;2024-01-15T09:22:08;93992.19;;;1.75;53.87
16793;BME280;8513;42.662;23.350;2024-01-15T09:24:33;94005.19;;;1.64;54.03
16793;BME280;8513;42.662;23.350;2024-01-15T09:26:58;93985.19;;;1.55;53.77
16793;BME280;8513;42.662;23.350;2024-01-15T09:29:24;93997.53;;;1.63;54.11
16793;BME280;8513;42.662;23.350;2024-01-15T09:31:50;93985.84;;;1.68;53.74
16793;BME280;8513;42.662;23.350;2024-01-15T09:34:16;93992.25;;;1.64;53.70
16793;BME280;8513;42.662;23.350;2024-01-15T09:36:41;93985.91;;;1.57;53.44
16793;BME280;8513;42.662;23.350;2024-01-15T09:39:08;93984.66;;;1.72;53.21
16793;BME280;8513;42.662;23.350;2024-01-15T09:41:37;93984.22;;;1.67;53.39
16793;BME280;8513;42.662;23.350;2024-01-15T09:44:06;93979.28;;;1.64;53.51
16793;BME280;8513;42.662;23.350;2024-01-15T09:46:34;93984.91;;;1.69;53.78
16793;BME280;8513;42.662;23.350;2024-01-15T09:49:00;93963.22;;;1.70;53.76
16793;BME280;8513;42.662;23.350;2024-01-15T09:51:28;93953.81;;;1.69;53.93
16793;BME280;8513;42.662;23.350;2024-01-15T09:53:57;93944.34;;;1.80;53.93
16793;BME280;8513;42.662;23.350;2024-01-15T09:56:23;93931.72;;;1.86;54.02
16793;BME280;8513;42.662;23.350;2024-01-15T09:58:48;93932.78;;;1.84;54.10
16793;BME280;8513;42.662;23.350;2024-01-15T10:01:16;93932.97;;;1.92;54.33
16793;BME280;8513;42.662;23.350;2024-01-15T10:03:42;93936.38;;;1.92;53.57
16793;BME280;8513;42.662;23.350;2024-01-15T10:06:08;93906.84;;;1.84;53.28
16793;BME280;8513;42.662;23.350;2024-01-15T10:08:36;93952.13;;;1.80;53.23
16793;BME280;8513;42.662;23.350;2024-01-15T10:11:02;93932.41;;;1.88;52.99
16793;BME280;8513;42.662;23.350;2024-01-15T10:13:30;93935.56;;;1.92;53.24
16793;BME280;8513;42.662;23.350;2024-01-15T10:15:56;93916.66;;;2.01;52.77
16793;BME280;8513;42.662;23.350;2024-01-15T10:18:21;93910.16;;;2.07;52.74
16793;BME280;8513;42.662;23.350;2024-01-15T10:20:47;93920.09;;;2.02;52.86
16793;BME280;8513;42.662;23.350;2024-01-15T10:23:14;93887.34;;;2.31;53.01
16793;BME280;8513;42.662;23.350;2024-01-15T10:25:42;93892.16;;;2.36;52.78
16793;BME280;8513;42.662;23.350;2024-01-15T10:28:07;93894.34;;;2.40;52.22
16793;BME280;8513;42.662;23.350;2024-01-15T10:30:33;93895.63;;;2.56;51.00
16793;BME280;8513;42.662;23.350;2024-01-15T10:33:03;93858.75;;;2.52;51.25
16793;BME280;8513;42.662;23.350;2024-01-15T10:35:29;93881.28;;;2.52;51.51
16793;BME280;8513;42.662;23.350;2024-01-15T10:37:55;93858.91;;;2.60;51.02
16793;BME280;8513;42.662;23.350;2024-01-15T10:40:20;93889.25;;;2.70;50.64
16793;BME280;8513;42.662;23.350;2024-01-15T10:42:46;93869.13;;;2.52;51.14
16793;BME280;8513;42.662;23.350;2024-01-15T10:45:13;93877.78;;;2.72;50.83
16793;BME280;8513;42.662;23.350;2024-01-15T10:47:39;93881.47;;;2.60;51.27
16793;BME280;8513;42.662;23.350;2024-01-15T10:50:05;93858.09;;;2.70;50.36
16793;BME280;8513;42.662;23.350;2024-01-15T10:52:33;93870.94;;;2.61;51.18
16793;BME280;8513;42.662;23.350;2024-01-15T10:55:00;93861.84;;;2.86;50.90
16793;BME280;8513;42.662;23.350;2024-01-15T10:57:26;93834.69;;;3.00;51.07
16793;BME280;8513;42.662;23.350;2024-01-15T10:59:51;93863.28;;;3.29;50.60
16793;BME280;8513;42.662;23.350;2024-01-15T11:02:17;93864.50;;;3.16;50.57
16793;BME280;8513;42.662;23.350;2024-01-15T11:04:43;93829.22;;;3.13;49.85
16793;BME280;8513;42.662;23.350;2024-01-15T11:07:10;93859.59;;;3.32;50.55
16793;BME280;8513;42.662;23.350;2024-01-15T11:09:37;93831.94;;;3.31;49.55
16793;BME280;8513;42.662;23.350;2024-01-15T11:12:13;93837.97;;;3.51;49.08
16793;BME280;8513;42.662;23.350;2024-01-15T11:14:45;93832.75;;;3.70;48.98
16793;BME280;8513;42.662;23.350;2024-01-15T11:17:11;93834.53;;;3.80;48.46
16793;BME280;8513;42.662;23.350;2024-01-15T11:22:11;93814.78;;;4.34;48.41
16793;BME280;8513;42.662;23.350;2024-01-15T11:24:57;93808.28;;;4.48;49.08
16793;BME280;8513;42.662;23.350;2024-01-15T11:27:41;93817.53;;;4.60;46.63
16793;BME280;8513;42.662;23.350;2024-01-15T11:30:11;93804.78;;;4.57;46.16
16793;BME280;8513;42.662;23.350;2024-01-15T11:32:37;93806.31;;;4.77;45.97
16793;BME280;8513;42.662;23.350;2024-01-15T11:35:07;93835.88;;;4.86;46.18
16793;BME280;8513;42.662;23.350;2024-01-15T11:42:48;93803.44;;;5.34;45.00
16793;BME280;8513;42.662;23.350;2024-01-15T11:45:18;93794.81;;;5.16;44.86
16793;BME280;8513;42.662;23.350;2024-01-15T11:48:13;93800.47;;;4.93;46.04
16793;BME280;8513;42.662;23.350;2024-01-15T11:50:49;93803.22;;;4.92;46.24
16793;BME280;8513;42.662;23.350;2024-01-15T11:53:27;93792.31;;;4.78;45.72
16793;BME280;8513;42.662;23.350;2024-01-15T11:55:58;93799.91;;;4.72;46.32
16793;BME280;8513;42.662;23.350;2024-01-15T11:58:25;93774.19;;;4.69;46.80
16793;BME280;8513;42.662;23.350;2024-01-15T12:00:51;93763.47;;;4.72;47.39
16793;BME280;8513;42.662;23.350;2024-01-15T12:03:20;93779.22;;;4.70;47.60
16793;BME280;8513;42.662;23.350;2024-01-15T12:05:46;93776.63;;;4.70;46.81
16793;BME280;8513;42.662;23.350;2024-01-15T12:08:11;93792.22;;;4.52;47.35
16793;BME280;8513;42.662;23.350;2024-01-15T12:10:40;93754.38;;;4.58;47.10
16793;BME280;8513;42.662;23.350;2024-01-15T12:13:10;93752.72;;;4.39;48.19
16793;BME280;8513;42.662;23.350;2024-01-15T12:15:36;93766.84;;;4.54;47.31
16793;BME280;8513;42.662;23.350;2024-01-15T12:18:02;93741.16;;;4.69;46.57
16793;BME280;8513;42.662;23.350;2024-01-15T12:20:29;93764.31;;;4.90;47.35
16793;BME280;8513;42.662;23.350;2024-01-15T12:22:54;93764.81;;;4.94;47.14
16793;BME280;8513;42.662;23.350;2024-01-15T12:25:23;93736.53;;;4.99;46.66
16793;BME280;8513;42.662;23.350;2024-01-15T12:27:51;93726.34;;;5.05;47.09
16793;BME280;8513;42.662;23.350;2024-01-15T12:30:17;93741.91;;;4.79;47.24
16793;BME280;8513;42.662;23.350;2024-01-15T12:32:43;93759.00;;;4.64;47.95
16793;BME280;8513;42.662;23.350;2024-01-15T12:35:10;93755.78;;;4.70;47.60
16793;BME280;8513;42.662;23.350;2024-01-15T12:37:37;93753.19;;;4.70;47.49
16793;BME280;8513;42.662;23.350;2024-01-15T12:40:04;93748.34;;;4.75;47.59
16793;BME280;8513;42.662;23.350;2024-01-15T12:42:32;93740.78;;;4.82;47.65
16793;BME280;8513;42.662;23.350;2024-01-15T12:44:58;93729.56;;;4.81;48.21
16793;BME280;8513;42.662;23.350;2024-01-15T12:47:25;93734.47;;;4.84;48.86
16793;BME280;8513;42.662;23.350;2024-01-15T12:49:52;93732.25;;;4.90;48.67
16793;BME280;8513;42.662;23.350;2024-01-15T12:52:20;93716.59;;;4.72;48.22
16793;BME280;8513;42.662;23.350;2024-01-15T12:54:49;93735.13;;;4.69;47.73
16793;BME280;8513;42.662;23.350;2024-01-15T12:57:16;93725.31;;;4.62;48.29
16793;BME280;8513;42.662;23.350;2024-01-15T12:59:43;93722.03;;;4.60;48.19
16793;BME280;8513;42.662;23.350;2024-01-15T13:02:14;93712.19;;;4.54;48.97
16793;BME280;8513;42.662;23.350;2024-01-15T13:04:40;93723.13;;;4.58;49.18
16793;BME280;8513;42.662;23.350;2024-01-15T13:07:06;93710.50;;;4.63;48.53